createdAt,value
2022-11-06T00:13:06.206Z,10.30
2022-11-06T00:15:34.320Z,10.30
2022-11-06T00:18:04.179Z,10.00
2022-11-06T00:20:32.101Z,10.10
2022-11-06T00:22:59.900Z,10.10
2022-11-06T00:25:27.715Z,10.10
2022-11-06T00:27:55.558Z,10.10
2022-11-06T00:30:24.723Z,10.00
2022-11-06T00:32:52.504Z,10.10
2022-11-06T00:35:20.313Z,10.20
2022-11-06T00:37:48.120Z,10.40
2022-11-06T00:40:15.953Z,10.30
2022-11-06T00:42:43.723Z,10.30
2022-11-06T00:45:11.764Z,10.50
2022-11-06T00:47:40.957Z,10.40
2022-11-06T00:50:09.045Z,10.50
2022-11-06T00:52:36.859Z,10.50
2022-11-06T00:55:04.879Z,10.50
2022-11-06T00:57:33.007Z,10.50
2022-11-06T01:00:00.787Z,10.10
2022-11-06T01:02:28.814Z,10.70
2022-11-06T01:04:58.088Z,10.60
2022-11-06T01:07:25.908Z,10.80
2022-11-06T01:09:53.694Z,10.70
2022-11-06T01:12:21.545Z,10.80
2022-11-06T01:14:49.355Z,10.80
2022-11-06T01:17:17.227Z,11.10
2022-11-06T01:19:45.071Z,10.90
2022-11-06T01:22:14.276Z,10.90
2022-11-06T01:24:42.174Z,11.00
2022-11-06T01:27:26.920Z,11.00
2022-11-06T01:29:55.793Z,11.00
2022-11-06T01:32:25.738Z,10.90
2022-11-06T01:34:53.560Z,10.90
2022-11-06T01:37:22.760Z,11.10
2022-11-06T01:39:50.782Z,11.00
2022-11-06T01:42:20.147Z,11.00
2022-11-06T01:45:12.257Z,10.60
2022-11-06T01:47:40.142Z,10.90
2022-11-06T01:50:09.356Z,11.00
2022-11-06T01:52:38.577Z,11.00
2022-11-06T01:55:08.439Z,10.90
2022-11-06T01:57:36.277Z,10.90
2022-11-06T02:00:05.354Z,10.90
2022-11-06T02:02:33.318Z,10.90
2022-11-06T02:05:01.307Z,10.90
2022-11-06T02:07:29.135Z,10.90
2022-11-06T02:09:58.302Z,10.90
2022-11-06T02:12:33.146Z,10.90
2022-11-06T02:15:02.798Z,10.90
2022-11-06T02:17:37.677Z,10.90
2022-11-06T02:20:11.452Z,10.90
2022-11-06T02:22:45.424Z,11.00
2022-11-06T02:25:20.099Z,10.90
2022-11-06T02:27:52.932Z,10.90
2022-11-06T02:30:21.015Z,10.90
2022-11-06T02:32:52.374Z,11.00
2022-11-06T02:35:22.321Z,11.00
2022-11-06T02:37:53.785Z,10.90
2022-11-06T02:40:22.636Z,11.10
2022-11-06T02:42:52.760Z,11.00
2022-11-06T02:45:22.281Z,11.10
2022-11-06T02:47:52.005Z,11.00
2022-11-06T02:50:21.715Z,11.20
2022-11-06T02:52:51.759Z,11.00
2022-11-06T02:57:51.853Z,10.90
2022-11-06T03:00:22.138Z,10.90
2022-11-06T04:04:58.593Z,11.20
2022-11-06T04:07:29.247Z,10.90
2022-11-06T04:10:17.234Z,11.10
2022-11-06T04:13:04.041Z,11.00
2022-11-06T04:15:34.089Z,10.90
2022-11-06T04:18:01.860Z,10.90
2022-11-06T04:21:01.064Z,10.80
2022-11-06T04:23:37.786Z,10.80
2022-11-06T04:26:24.921Z,10.90
2022-11-06T04:28:56.112Z,10.80
2022-11-06T04:31:29.632Z,10.90
2022-11-06T04:33:59.764Z,11.00
2022-11-06T04:36:33.339Z,10.80
2022-11-06T04:39:05.960Z,10.80
2022-11-06T04:41:35.513Z,10.60
2022-11-06T04:44:04.459Z,10.60
2022-11-06T04:46:34.658Z,10.60
2022-11-06T04:49:03.073Z,10.60
2022-11-06T04:51:33.963Z,10.60
2022-11-06T04:54:01.797Z,10.60
2022-11-06T04:56:34.645Z,10.50
2022-11-06T04:59:02.997Z,10.60
2022-11-06T05:01:31.231Z,10.50
2022-11-06T05:03:59.121Z,10.50
2022-11-06T05:06:29.939Z,10.50
2022-11-06T05:08:59.574Z,10.50
2022-11-06T05:11:27.391Z,10.50
2022-11-06T05:13:55.344Z,10.50
2022-11-06T05:16:23.141Z,10.50
2022-11-06T05:18:50.948Z,10.50
2022-11-06T05:21:36.158Z,10.50
2022-11-06T05:24:05.864Z,10.40
2022-11-06T05:26:33.697Z,10.50
2022-11-06T05:29:01.536Z,10.60
2022-11-06T05:31:29.376Z,10.50
2022-11-06T05:33:57.160Z,10.50
2022-11-06T05:36:25.057Z,10.60
2022-11-06T05:38:52.870Z,10.50
2022-11-06T05:41:22.052Z,10.50
2022-11-06T05:43:50.002Z,10.50
2022-11-06T05:46:46.980Z,10.90
2022-11-06T05:49:05.629Z,10.60
2022-11-06T05:51:33.462Z,10.70
2022-11-06T05:54:01.306Z,10.60
2022-11-06T05:56:30.517Z,10.70
2022-11-06T05:58:58.313Z,10.70
2022-11-06T06:01:26.186Z,10.70
2022-11-06T06:03:54.063Z,10.70
2022-11-06T06:06:22.038Z,10.80
2022-11-06T06:08:49.870Z,10.90
2022-11-06T06:11:17.638Z,10.90
2022-11-06T06:13:48.116Z,11.00
2022-11-06T06:16:15.924Z,10.90
2022-11-06T06:18:43.765Z,10.90
2022-11-06T06:21:11.558Z,11.10
2022-11-06T06:23:39.381Z,11.00
2022-11-06T06:26:07.243Z,11.00
2022-11-06T06:28:35.195Z,11.10
2022-11-06T06:31:06.234Z,11.00
2022-11-06T06:33:34.358Z,11.00
2022-11-06T06:36:03.942Z,11.00
2022-11-06T06:38:31.893Z,11.10
2022-11-06T06:41:01.822Z,11.10
2022-11-06T06:43:29.656Z,11.10
2022-11-06T06:45:58.779Z,11.10
2022-11-06T06:48:28.202Z,11.10
2022-11-06T06:50:57.696Z,11.20
2022-11-06T06:53:25.522Z,11.10
2022-11-06T06:55:53.349Z,11.00
2022-11-06T06:58:21.572Z,11.30
2022-11-06T07:00:49.635Z,11.20
2022-11-06T07:03:17.542Z,11.30
2022-11-06T07:05:47.228Z,11.20
2022-11-06T07:08:15.353Z,11.20
2022-11-06T07:10:43.455Z,11.30
2022-11-06T07:13:11.654Z,11.30
2022-11-06T07:15:39.668Z,11.30
2022-11-06T07:18:08.134Z,11.50
2022-11-06T07:20:35.998Z,11.50
2022-11-06T07:23:07.830Z,11.40
2022-11-06T07:25:36.029Z,11.60
2022-11-06T07:28:04.522Z,11.50
2022-11-06T07:30:32.825Z,11.40
2022-11-06T07:33:01.112Z,11.50
2022-11-06T07:35:28.973Z,11.50
2022-11-06T07:37:56.790Z,11.50
2022-11-06T07:40:25.975Z,11.70
2022-11-06T07:42:53.808Z,11.70
2022-11-06T07:45:21.605Z,11.60
2022-11-06T07:47:49.414Z,11.80
2022-11-06T07:50:17.243Z,11.80
2022-11-06T07:52:45.103Z,11.70
2022-11-06T07:55:12.972Z,11.00
2022-11-06T07:57:42.117Z,11.80
2022-11-06T08:00:10.881Z,12.00
2022-11-06T08:02:38.862Z,11.80
2022-11-06T08:05:06.850Z,12.00
2022-11-06T08:07:34.695Z,11.90
2022-11-06T08:10:02.504Z,11.30
2022-11-06T08:12:30.329Z,12.00
2022-11-06T08:14:59.507Z,11.90
2022-11-06T08:17:30.059Z,11.90
2022-11-06T08:19:57.882Z,11.80
2022-11-06T08:22:25.687Z,12.10
2022-11-06T08:24:53.530Z,12.00
2022-11-06T08:27:21.328Z,11.90
2022-11-06T08:29:49.149Z,11.90
2022-11-06T08:32:18.351Z,11.90
2022-11-06T08:34:46.150Z,12.00
2022-11-06T08:37:13.972Z,12.10
2022-11-06T08:39:41.791Z,12.10
2022-11-06T08:42:09.667Z,12.20
2022-11-06T08:44:37.481Z,12.20
2022-11-06T08:47:05.441Z,12.30
2022-11-06T08:49:34.583Z,12.50
2022-11-06T08:52:02.419Z,12.60
2022-11-06T08:54:30.239Z,12.60
2022-11-06T08:56:58.244Z,12.70
2022-11-06T08:59:26.116Z,12.70
2022-11-06T09:01:53.996Z,12.90
2022-11-06T09:04:21.960Z,13.00
2022-11-06T09:06:51.125Z,13.20
2022-11-06T09:09:18.965Z,13.10
2022-11-06T09:11:46.789Z,13.20
2022-11-06T09:14:14.643Z,13.10
2022-11-06T09:16:42.452Z,13.20
2022-11-06T09:19:10.303Z,13.00
2022-11-06T09:21:38.100Z,12.90
2022-11-06T09:24:07.847Z,13.00
2022-11-06T09:26:35.714Z,12.90
2022-11-06T09:29:03.565Z,13.10
2022-11-06T09:31:31.493Z,12.80
2022-11-06T09:33:59.338Z,13.00
2022-11-06T09:36:27.151Z,12.90
2022-11-06T09:38:55.003Z,12.80
2022-11-06T09:41:28.325Z,12.80
2022-11-06T09:44:06.136Z,12.80
2022-11-06T09:46:36.958Z,12.90
2022-11-06T09:49:07.074Z,12.80
2022-11-06T09:51:38.866Z,12.80
2022-11-06T09:54:11.159Z,12.80
2022-11-06T09:56:41.416Z,12.30
2022-11-06T09:59:12.371Z,12.90
2022-11-06T10:01:43.789Z,13.00
2022-11-06T10:04:19.464Z,12.90
2022-11-06T10:06:47.324Z,12.90
2022-11-06T10:09:17.570Z,12.80
2022-11-06T10:11:59.177Z,13.70
2022-11-06T10:14:33.277Z,12.70
2022-11-06T10:17:08.513Z,12.60
2022-11-06T10:19:40.088Z,12.60
2022-11-06T10:22:13.525Z,12.70
2022-11-06T10:24:45.421Z,12.60
2022-11-06T10:27:16.299Z,12.70
2022-11-06T10:30:01.991Z,12.60
2022-11-06T10:32:40.607Z,12.60
2022-11-06T10:35:13.415Z,12.70
2022-11-06T10:37:45.987Z,12.80
2022-11-06T10:40:18.452Z,12.70
2022-11-06T10:42:49.228Z,12.70
2022-11-06T10:45:18.009Z,12.70
2022-11-06T10:47:48.199Z,12.70
2022-11-06T10:50:17.479Z,12.70
2022-11-06T10:52:54.583Z,12.90
2022-11-06T10:55:40.727Z,12.70
2022-11-06T10:58:11.463Z,12.70
2022-11-06T11:00:39.802Z,12.90
2022-11-06T11:03:08.802Z,12.80
2022-11-06T11:05:39.865Z,12.70
2022-11-06T11:08:08.044Z,12.90
2022-11-06T11:10:36.860Z,12.80
2022-11-06T11:13:08.791Z,12.80
2022-11-06T11:15:43.712Z,12.90
2022-11-06T11:18:17.479Z,12.90
2022-11-06T11:20:46.245Z,12.90
2022-11-06T11:23:16.148Z,13.00
2022-11-06T11:25:45.317Z,13.00
2022-11-06T11:28:22.730Z,13.10
2022-11-06T11:30:56.271Z,12.90
2022-11-06T11:33:25.567Z,13.00
2022-11-06T11:35:55.235Z,13.00
2022-11-06T11:38:24.094Z,13.00
2022-11-06T11:40:51.900Z,12.70
2022-11-06T11:43:24.124Z,13.10
2022-11-06T11:46:04.199Z,12.40
2022-11-06T11:48:45.284Z,12.90
2022-11-06T11:51:14.845Z,12.90
2022-11-06T11:53:43.005Z,12.90
2022-11-06T11:56:15.215Z,13.00
2022-11-06T11:58:49.579Z,12.90
2022-11-06T12:01:19.516Z,12.30
2022-11-06T12:03:49.963Z,12.90
2022-11-06T12:06:18.939Z,13.00
2022-11-06T12:08:48.117Z,12.80
2022-11-06T12:11:17.315Z,12.90
2022-11-06T12:13:45.160Z,12.70
2022-11-06T12:16:15.999Z,12.10
2022-11-06T12:18:46.385Z,12.60
2022-11-06T12:21:15.866Z,12.00
2022-11-06T12:23:44.879Z,12.50
2022-11-06T12:26:18.673Z,12.50
2022-11-06T12:28:48.106Z,12.40
2022-11-06T12:31:21.930Z,12.30
2022-11-06T12:34:07.505Z,12.30
2022-11-06T12:36:39.596Z,12.20
2022-11-06T12:39:12.839Z,12.10
2022-11-06T12:41:42.883Z,11.90
2022-11-06T12:44:11.288Z,11.90
2022-11-06T12:46:42.107Z,11.80
2022-11-06T12:49:29.085Z,11.80
2022-11-06T12:52:03.783Z,11.80
2022-11-06T12:54:39.503Z,11.60
2022-11-06T12:57:10.609Z,11.60
2022-11-06T12:59:45.048Z,11.50
2022-11-06T13:02:20.792Z,11.60
2022-11-06T13:04:53.917Z,11.50
2022-11-06T13:07:40.243Z,11.30
2022-11-06T13:10:13.441Z,11.30
2022-11-06T13:12:44.956Z,11.20
2022-11-06T13:15:20.583Z,11.10
2022-11-06T13:17:52.825Z,10.80
2022-11-06T13:20:26.690Z,11.20
2022-11-06T13:22:57.836Z,11.10
2022-11-06T13:25:29.387Z,11.00
2022-11-06T13:27:59.188Z,11.10
2022-11-06T13:30:29.218Z,10.90
2022-11-06T13:33:03.610Z,11.00
2022-11-06T13:35:33.481Z,11.00
2022-11-06T13:38:02.479Z,11.00
2022-11-06T13:40:32.759Z,11.10
2022-11-06T13:43:03.373Z,10.90
2022-11-06T13:45:35.072Z,10.90
2022-11-06T13:50:35.856Z,10.90
2022-11-06T13:55:41.999Z,10.70
2022-11-06T14:08:09.250Z,10.50
2022-11-06T14:10:39.111Z,10.40
2022-11-06T14:13:08.699Z,10.30
2022-11-06T14:15:38.490Z,10.40
2022-11-06T14:18:06.813Z,9.90
2022-11-06T14:23:23.939Z,10.10
2022-11-06T14:26:00.479Z,10.10
2022-11-06T14:28:32.309Z,10.00
2022-11-06T14:31:21.497Z,10.00
2022-11-06T14:56:09.469Z,9.70
2022-11-06T14:58:39.199Z,9.60
2022-11-06T15:01:15.002Z,9.60
2022-11-06T15:03:46.755Z,9.60
2022-11-06T15:06:35.461Z,9.60
2022-11-06T15:09:05.655Z,9.60
2022-11-06T15:11:54.198Z,9.60
2022-11-06T15:14:40.664Z,9.60
2022-11-06T15:17:12.479Z,9.60
2022-11-06T15:19:42.459Z,9.40
2022-11-06T15:22:16.557Z,8.80
2022-11-06T15:24:46.561Z,9.40
2022-11-06T15:27:17.408Z,9.50
2022-11-06T15:29:46.273Z,9.30
2022-11-06T15:32:14.906Z,9.40
2022-11-06T15:34:43.916Z,9.40
2022-11-06T15:39:43.091Z,9.30
2022-11-06T15:42:15.047Z,9.40
2022-11-06T15:44:45.341Z,9.30
2022-11-06T15:47:21.087Z,9.40
2022-11-06T15:52:18.128Z,9.40
2022-11-06T15:54:48.791Z,7.30
2022-11-06T15:57:19.145Z,9.20
2022-11-06T15:59:48.531Z,9.40
2022-11-06T16:02:17.882Z,8.90
2022-11-06T16:04:46.292Z,9.10
2022-11-06T16:07:14.804Z,9.10
2022-11-06T16:09:43.568Z,9.20
2022-11-06T16:12:12.638Z,9.10
2022-11-06T16:17:12.775Z,9.20
2022-11-06T16:32:06.223Z,9.20
2022-11-06T16:34:37.489Z,9.10
2022-11-06T16:37:06.286Z,9.30
2022-11-06T16:39:51.313Z,9.10
2022-11-06T16:42:26.842Z,9.20
2022-11-06T16:45:01.633Z,9.20
2022-11-06T16:47:29.544Z,9.20
2022-11-06T16:49:59.712Z,9.30
2022-11-06T16:52:28.518Z,8.50
2022-11-06T16:54:58.542Z,9.30
2022-11-06T16:57:27.419Z,9.40
2022-11-06T16:59:56.979Z,9.40
2022-11-06T17:02:25.516Z,9.50
2022-11-06T17:05:06.902Z,9.50
2022-11-06T17:07:36.169Z,9.50
2022-11-06T17:10:24.568Z,9.50
2022-11-06T17:12:52.403Z,9.40
2022-11-06T17:15:20.423Z,9.60
2022-11-06T17:17:50.224Z,9.60
2022-11-06T17:20:19.373Z,9.50
2022-11-06T17:22:49.967Z,9.50
2022-11-06T17:25:17.794Z,9.40
2022-11-06T17:27:45.565Z,9.50
2022-11-06T17:30:14.443Z,9.60
2022-11-06T17:32:42.335Z,9.70
2022-11-06T17:37:39.927Z,9.60
2022-11-06T17:40:10.012Z,9.50
2022-11-06T17:42:37.818Z,9.60
2022-11-06T17:45:06.004Z,9.90
2022-11-06T17:47:33.826Z,9.70
2022-11-06T17:50:03.962Z,9.90
2022-11-06T17:52:32.061Z,9.80
2022-11-06T17:54:59.935Z,9.80
2022-11-06T17:57:29.084Z,9.80
2022-11-06T17:59:56.930Z,9.80
2022-11-06T18:02:47.498Z,9.80
2022-11-06T18:05:12.555Z,9.90
2022-11-06T18:07:40.346Z,9.90
2022-11-06T18:12:39.681Z,9.90
2022-11-06T18:27:35.035Z,10.10
2022-11-06T18:30:04.438Z,10.00
2022-11-06T18:35:02.942Z,9.20
2022-11-06T18:37:30.802Z,10.40
2022-11-06T18:39:58.674Z,10.30
2022-11-06T18:42:26.495Z,10.40
2022-11-06T18:44:54.395Z,10.20
2022-11-06T21:41:46.394Z,11.60
2022-11-06T21:44:14.735Z,11.50
2022-11-06T21:46:45.558Z,11.50
2022-11-06T21:49:14.537Z,11.50
2022-11-06T21:51:42.582Z,11.40
2022-11-06T21:54:28.791Z,11.40
2022-11-06T21:56:57.992Z,11.40
2022-11-06T22:01:54.256Z,11.40
2022-11-06T22:04:22.208Z,11.50
2022-11-06T22:06:50.106Z,11.50
2022-11-06T22:09:23.375Z,11.50
2022-11-06T22:11:53.002Z,11.50
2022-11-06T22:14:22.413Z,11.50
2022-11-06T22:16:50.439Z,11.50
2022-11-06T22:19:18.653Z,11.50
2022-11-06T22:21:46.488Z,11.50
2022-11-06T22:24:14.705Z,11.50
2022-11-06T22:26:42.570Z,11.50
2022-11-06T22:29:11.892Z,11.40
2022-11-06T22:49:00.421Z,11.40
2022-11-06T22:51:29.078Z,11.40
2022-11-06T22:53:57.287Z,11.50
2022-11-06T22:56:25.697Z,11.40
2022-11-06T22:58:54.044Z,11.40
2022-11-06T23:01:22.522Z,11.40
2022-11-06T23:03:50.395Z,11.40
2022-11-06T23:06:19.590Z,11.40
2022-11-06T23:08:47.578Z,11.40
2022-11-06T23:11:17.130Z,11.40
2022-11-06T23:13:45.282Z,11.40
2022-11-06T23:16:14.775Z,11.30
2022-11-06T23:18:42.638Z,11.40
2022-11-06T23:21:13.952Z,11.40
2022-11-06T23:23:43.137Z,11.40
2022-11-06T23:26:11.742Z,11.40
2022-11-06T23:28:39.578Z,11.40
2022-11-06T23:31:07.764Z,11.50
2022-11-06T23:33:35.679Z,11.50
2022-11-06T23:36:05.698Z,11.50
2022-11-06T23:38:33.590Z,11.60
2022-11-06T23:41:28.409Z,11.50
2022-11-06T23:43:56.294Z,11.50
2022-11-06T23:46:24.611Z,11.60
2022-11-06T23:48:52.439Z,11.60
2022-11-06T23:51:20.401Z,11.60
2022-11-06T23:53:48.270Z,11.60
2022-11-06T23:56:17.960Z,11.50
2022-11-06T23:58:45.795Z,11.60
